CYIOCYCY

Guest
Details From CYIO - POND INLET
To CYCY - CLYDE RIVER
Flight Number -
Tags generated
Created
Modified
Stats Distance 223 nm / 413 km
Max Altitude 8,800 ft / 2,682 m
Waypoints 4
Social Downloads 8
Likes 0
Share

Download

Looking for another format? Having issues loading an existing format? Contact us
Advertisement - Login to hide

Notes

Basic altitude profile: - Ascent Rate: 2500ft/min - Ascent Speed: 250kts - Cruise Altitude: 35000ft - Cruise Speed: 420kts - Descent Rate: 1500ft/min - Descent Speed: 250kts Options: - Use NATs: yes - Use PACOTS: yes - Use low airways: yes - Use high airways: yes

Route

CYIO YIO RR30 YCY CYCY

ID Type Via Altitude (ft/m) Position (lat/lon) Dist (leg/tot) Name
O CYIO APT - 0 / 0 72.68333 / -77.96666 - / 0 nm POND INLET
YIO NDB - 200 / 61 72.69311 / -77.95097 0 / 0 nm POND INLET NDB
YCY NDB RR30 (AWY-LO) 8,800 / 2,682 70.48517 / -68.52694 222 / 222 nm CLYDE RIVER NDB
O CYCY APT - 0 / 0 70.48611 / -68.51653 0 / 223 nm CLYDE RIVER

Altitude Profile

Advertisement - Login to hide

Weather


0- 5 10 15 20 25 30 35+ Temperature / °C

Clouds and Precipitation
Forecast for 2024-04-15 18:00 UTC. Updated 2 months ago

Ground ~20,000 ft ~40,000 ft Winds

CYIO

Details ICAO CYIO (YIO)
Name POND INLET
Region Canada
Timezone America/Iqaluit (UTC-4.0)
Stats Elevation 181 ft / 55 m (AMSL)
Location 72.683300° -77.966700°
Runways 1
Magnetic Variation 31.952° W

METAR

CYIO 141500Z 04007KT 40SM FEW005 FEW034 05/M01 A2985 RMK SC1SC1 SLP117

Decode

TAF

TAF CYIO 141240Z 1413/1501 VRB03KT P6SM FEW020 SCT040 BECMG 1416/1418 04015KT RMK FCST BASED ON AUTO OBS. NXT FCST BY 141900Z

Decode

Departure Runways

ID Width Length Bearing (true/mag) Surface Threshold Overrun Markings Lighting
02T 100 ft / 30 m 3,986 ft / 1,215 m 22.99° / 54.94° GRAVEL 0 ft / 0 m 0 ft / 0 m VISUAL EDGE THRESHOLD REIL-OMNI
20T 100 ft / 30 m 3,986 ft / 1,215 m 203.00° / 234.95° GRAVEL 0 ft / 0 m 0 ft / 0 m VISUAL EDGE THRESHOLD REIL-OMNI

CYCY

Details ICAO CYCY (YCY)
Name CLYDE RIVER
Region Canada
Timezone America/Iqaluit (UTC-4.0)
Stats Elevation 87 ft / 27 m (AMSL)
Location 70.486100° -68.516500°
Runways 1
Magnetic Variation 31.837° W

METAR

CYCY 141500Z AUTO 10008KT 9SM BKN008 OVC013 00/M00 A2995 RMK SLP147

Decode

TAF

TAF CYCY 141240Z 1413/1501 11008KT P6SM SCT004 BKN012 TEMPO 1413/1418 1SM -SN BR BKN004 OVC012 PROB30 1413/1418 1/2SM -SN FZFG OVC002 FM141800 04008KT 4SM -SN BR SCT004 BKN010 TEMPO 1418/1501 1/2SM -SN FZFG BECMG 1419/1421 04015KT RMK FCST BASED ON AUTO OBS. NXT FCST BY 141900Z

Decode

Destination Runways

ID Width Length Bearing (true/mag) Surface Threshold Overrun Markings Lighting
02T 100 ft / 30 m 3,623 ft / 1,104 m 17.95° / 49.79° GRAVEL 0 ft / 0 m 0 ft / 0 m VISUAL EDGE THRESHOLD REIL-OMNI
20T 100 ft / 30 m 3,623 ft / 1,104 m 197.96° / 229.80° GRAVEL 0 ft / 0 m 0 ft / 0 m VISUAL EDGE THRESHOLD REIL-OMNI

Popular Alternatives